AAL9100 KTUL-KMEM
Flight info
| Callsign | AAL9100 |
|---|---|
| Flight time | 1h 10m |
| Altitude | 39000 |
| Route | MAYJI FSM LITTR HOBRK4 |
| Aircraft | B772/H-SDE2E3FGHIJ5LORVWXY/LB1D1 |
Departure
| Time | 2026-05-05 13:23 |
|---|---|
| Airport | Tulsa International Airport (KTUL) |
Arrival
| Time | 2026-05-05 14:33 |
|---|---|
| Airport | Memphis International Airport (KMEM) |
| Time | Latitude | Longitude | Altitude | Speed | Heading |
|---|---|---|---|---|---|
| 2026-05-05 12:48 | 36.18841 | -95.88631 | 672 ft | 0 kts | 273° |
| 2026-05-05 13:01 | 36.18841 | -95.88617 | 664 ft | 2 kts | 266° |
| 2026-05-05 13:01 | 36.18842 | -95.88596 | 665 ft | 2 kts | 262° |
| 2026-05-05 13:02 | 36.18845 | -95.88576 | 670 ft | 2 kts | 249° |
| 2026-05-05 13:02 | 36.18853 | -95.88558 | 669 ft | 2 kts | 225° |
| 2026-05-05 13:02 | 36.18866 | -95.88546 | 667 ft | 2 kts | 198° |
| 2026-05-05 13:02 | 36.18880 | -95.88542 | 669 ft | 1 kts | 185° |
| 2026-05-05 13:03 | 36.18884 | -95.88542 | 672 ft | 0 kts | 184° |
| 2026-05-05 13:07 | 36.18880 | -95.88542 | 672 ft | 1 kts | 184° |
| 2026-05-05 13:07 | 36.18877 | -95.88543 | 672 ft | 1 kts | 184° |
| 2026-05-05 13:07 | 36.18873 | -95.88543 | 672 ft | 1 kts | 184° |
| 2026-05-05 13:08 | 36.18858 | -95.88544 | 671 ft | 4 kts | 184° |
| 2026-05-05 13:08 | 36.18832 | -95.88546 | 672 ft | 4 kts | 184° |
| 2026-05-05 13:08 | 36.18806 | -95.88548 | 672 ft | 4 kts | 183° |
| 2026-05-05 13:08 | 36.18781 | -95.88550 | 672 ft | 4 kts | 183° |
| 2026-05-05 13:09 | 36.18755 | -95.88552 | 672 ft | 4 kts | 183° |
| 2026-05-05 13:09 | 36.18730 | -95.88553 | 672 ft | 4 kts | 183° |
| 2026-05-05 13:09 | 36.18705 | -95.88555 | 672 ft | 4 kts | 183° |
| 2026-05-05 13:09 | 36.18692 | -95.88552 | 672 ft | 0 kts | 158° |
| 2026-05-05 13:14 | 36.18692 | -95.88551 | 672 ft | 1 kts | 157° |
| 2026-05-05 13:14 | 36.18684 | -95.88544 | 672 ft | 2 kts | 137° |
| 2026-05-05 13:15 | 36.18678 | -95.88527 | 672 ft | 3 kts | 108° |
| 2026-05-05 13:15 | 36.18674 | -95.88491 | 672 ft | 4 kts | 96° |
| 2026-05-05 13:15 | 36.18671 | -95.88453 | 672 ft | 4 kts | 93° |
| 2026-05-05 13:15 | 36.18670 | -95.88415 | 672 ft | 4 kts | 93° |
| 2026-05-05 13:16 | 36.18668 | -95.88377 | 672 ft | 4 kts | 93° |
| 2026-05-05 13:16 | 36.18666 | -95.88339 | 672 ft | 4 kts | 94° |
| 2026-05-05 13:16 | 36.18682 | -95.88316 | 671 ft | 3 kts | 24° |
| 2026-05-05 13:16 | 36.18698 | -95.88313 | 671 ft | 0 kts | 4° |
| 2026-05-05 13:17 | 36.18699 | -95.88313 | 671 ft | 4 kts | 4° |
| 2026-05-05 13:17 | 36.18968 | -95.88295 | 670 ft | 61 kts | 3° |
| 2026-05-05 13:17 | 36.19108 | -95.88287 | 671 ft | 7 kts | 353° |
| 2026-05-05 13:17 | 36.19130 | -95.88316 | 671 ft | 5 kts | 298° |
| 2026-05-05 13:18 | 36.19143 | -95.88353 | 672 ft | 5 kts | 292° |
| 2026-05-05 13:18 | 36.19138 | -95.88408 | 672 ft | 7 kts | 237° |
| 2026-05-05 13:18 | 36.19109 | -95.88441 | 670 ft | 0 kts | 220° |
| 2026-05-05 13:19 | 36.19079 | -95.88471 | 671 ft | 13 kts | 218° |
| 2026-05-05 13:20 | 36.18992 | -95.88535 | 672 ft | 15 kts | 194° |
| 2026-05-05 13:20 | 36.18891 | -95.88544 | 672 ft | 14 kts | 181° |
| 2026-05-05 13:20 | 36.18821 | -95.88548 | 672 ft | 8 kts | 182° |
| 2026-05-05 13:20 | 36.18764 | -95.88551 | 672 ft | 8 kts | 182° |
| 2026-05-05 13:21 | 36.18742 | -95.88552 | 672 ft | 0 kts | 182° |
| 2026-05-05 13:21 | 36.18713 | -95.88554 | 672 ft | 6 kts | 182° |
| 2026-05-05 13:21 | 36.18678 | -95.88527 | 672 ft | 9 kts | 115° |
| 2026-05-05 13:22 | 36.18671 | -95.88432 | 672 ft | 11 kts | 93° |
| 2026-05-05 13:22 | 36.18667 | -95.88341 | 672 ft | 8 kts | 93° |
| 2026-05-05 13:22 | 36.18685 | -95.88318 | 671 ft | 5 kts | 20° |
| 2026-05-05 13:22 | 36.18837 | -95.88303 | 670 ft | 52 kts | 3° |
| 2026-05-05 13:23 | 36.19480 | -95.88260 | 674 ft | 131 kts | 2° |
| 2026-05-05 13:23 | 36.20588 | -95.88208 | 899 ft | 172 kts | 7° |
| 2026-05-05 13:23 | 36.21789 | -95.88160 | 1837 ft | 174 kts | 6° |
| 2026-05-05 13:23 | 36.23060 | -95.88064 | 2314 ft | 196 kts | 4° |
| 2026-05-05 13:24 | 36.24522 | -95.87963 | 2541 ft | 225 kts | 3° |
| 2026-05-05 13:24 | 36.26177 | -95.87806 | 2766 ft | 250 kts | 13° |
| 2026-05-05 13:24 | 36.27676 | -95.86663 | 3286 ft | 262 kts | 52° |
| 2026-05-05 13:24 | 36.28356 | -95.84569 | 4065 ft | 268 kts | 86° |
| 2026-05-05 13:25 | 36.28059 | -95.82317 | 4830 ft | 271 kts | 108° |
| 2026-05-05 13:25 | 36.27396 | -95.80080 | 5458 ft | 280 kts | 111° |
| 2026-05-05 13:25 | 36.26684 | -95.77826 | 6303 ft | 282 kts | 111° |
| 2026-05-05 13:25 | 36.25948 | -95.75529 | 6954 ft | 290 kts | 112° |
| 2026-05-05 13:26 | 36.25201 | -95.73182 | 7678 ft | 294 kts | 113° |
| 2026-05-05 13:26 | 36.24446 | -95.70800 | 8352 ft | 301 kts | 114° |
| 2026-05-05 13:26 | 36.23673 | -95.68347 | 8999 ft | 308 kts | 115° |
| 2026-05-05 13:26 | 36.22889 | -95.65849 | 9696 ft | 313 kts | 115° |
| 2026-05-05 13:27 | 36.22363 | -95.64167 | 10071 ft | 320 kts | 115° |
| 2026-05-05 13:27 | 36.21527 | -95.61500 | 10299 ft | 344 kts | 115° |
| 2026-05-05 13:27 | 36.20647 | -95.58681 | 10892 ft | 356 kts | 114° |
| 2026-05-05 13:27 | 36.19450 | -95.54825 | 11972 ft | 366 kts | 114° |
| 2026-05-05 13:28 | 36.18829 | -95.52824 | 12665 ft | 369 kts | 114° |
| 2026-05-05 13:28 | 36.17906 | -95.49844 | 13692 ft | 373 kts | 114° |
| 2026-05-05 13:28 | 36.16976 | -95.46852 | 14536 ft | 382 kts | 114° |
| 2026-05-05 13:28 | 36.16009 | -95.43747 | 15377 ft | 391 kts | 114° |
| 2026-05-05 13:29 | 36.15019 | -95.40573 | 16201 ft | 399 kts | 114° |
| 2026-05-05 13:29 | 36.14010 | -95.37336 | 17044 ft | 407 kts | 114° |
| 2026-05-05 13:29 | 36.12979 | -95.34033 | 17871 ft | 415 kts | 114° |
| 2026-05-05 13:29 | 36.11927 | -95.30666 | 18591 ft | 423 kts | 114° |
| 2026-05-05 13:30 | 36.10859 | -95.27253 | 19331 ft | 429 kts | 114° |
| 2026-05-05 13:30 | 36.09776 | -95.23797 | 20152 ft | 433 kts | 114° |
| 2026-05-05 13:30 | 36.08681 | -95.20304 | 20922 ft | 439 kts | 114° |
| 2026-05-05 13:30 | 36.07566 | -95.16751 | 21704 ft | 445 kts | 114° |
| 2026-05-05 13:31 | 36.06441 | -95.13168 | 22481 ft | 451 kts | 114° |
| 2026-05-05 13:31 | 36.05293 | -95.09522 | 23241 ft | 457 kts | 114° |
| 2026-05-05 13:31 | 36.04130 | -95.05842 | 23901 ft | 462 kts | 115° |
| 2026-05-05 13:31 | 36.02856 | -95.02234 | 24824 ft | 455 kts | 121° |
| 2026-05-05 13:32 | 36.01282 | -94.98861 | 25601 ft | 451 kts | 130° |
| 2026-05-05 13:32 | 35.99314 | -94.95859 | 26162 ft | 450 kts | 141° |
| 2026-05-05 13:32 | 35.97012 | -94.93238 | 26676 ft | 453 kts | 146° |
| 2026-05-05 13:32 | 35.94640 | -94.90640 | 27237 ft | 459 kts | 146° |
| 2026-05-05 13:33 | 35.92243 | -94.87990 | 27856 ft | 464 kts | 145° |
| 2026-05-05 13:33 | 35.89876 | -94.85335 | 28474 ft | 469 kts | 145° |
| 2026-05-05 13:33 | 35.87430 | -94.82561 | 29050 ft | 475 kts | 144° |
| 2026-05-05 13:33 | 35.85019 | -94.79807 | 29577 ft | 481 kts | 144° |
| 2026-05-05 13:34 | 35.82558 | -94.76986 | 30055 ft | 486 kts | 144° |
| 2026-05-05 13:34 | 35.80067 | -94.74128 | 30489 ft | 491 kts | 145° |
| 2026-05-05 13:34 | 35.77553 | -94.71245 | 30897 ft | 497 kts | 145° |
| 2026-05-05 13:34 | 35.74999 | -94.68322 | 31294 ft | 503 kts | 145° |
| 2026-05-05 13:35 | 35.72426 | -94.65381 | 31679 ft | 508 kts | 145° |
| 2026-05-05 13:35 | 35.69825 | -94.62411 | 32071 ft | 512 kts | 145° |
| 2026-05-05 13:35 | 35.67192 | -94.59407 | 32458 ft | 517 kts | 146° |
| 2026-05-05 13:35 | 35.64537 | -94.56383 | 32866 ft | 521 kts | 146° |
| 2026-05-05 13:36 | 35.61856 | -94.53333 | 33231 ft | 526 kts | 146° |
| 2026-05-05 13:36 | 35.59192 | -94.50304 | 33591 ft | 531 kts | 146° |
| 2026-05-05 13:36 | 35.56474 | -94.47216 | 33931 ft | 535 kts | 146° |
| 2026-05-05 13:36 | 35.53732 | -94.44103 | 34261 ft | 538 kts | 146° |
| 2026-05-05 13:37 | 35.50978 | -94.40978 | 34607 ft | 541 kts | 146° |
| 2026-05-05 13:37 | 35.48201 | -94.37828 | 34942 ft | 545 kts | 146° |
| 2026-05-05 13:37 | 35.45408 | -94.34668 | 35264 ft | 548 kts | 146° |
| 2026-05-05 13:37 | 35.42633 | -94.31431 | 35556 ft | 556 kts | 141° |
| 2026-05-05 13:38 | 35.40104 | -94.27767 | 35841 ft | 568 kts | 133° |
| 2026-05-05 13:38 | 35.37853 | -94.23657 | 36121 ft | 577 kts | 126° |
| 2026-05-05 13:38 | 35.36002 | -94.19350 | 36438 ft | 584 kts | 117° |
| 2026-05-05 13:38 | 35.34449 | -94.14720 | 36803 ft | 586 kts | 115° |
| 2026-05-05 13:39 | 35.32971 | -94.10068 | 37178 ft | 586 kts | 114° |
| 2026-05-05 13:39 | 35.31510 | -94.05410 | 37550 ft | 586 kts | 114° |
| 2026-05-05 13:39 | 35.30019 | -94.00695 | 37909 ft | 586 kts | 114° |
| 2026-05-05 13:39 | 35.28539 | -93.96099 | 38236 ft | 587 kts | 115° |
| 2026-05-05 13:40 | 35.27000 | -93.91400 | 38561 ft | 587 kts | 115° |
| 2026-05-05 13:40 | 35.25485 | -93.86830 | 38720 ft | 589 kts | 115° |
| 2026-05-05 13:40 | 35.22373 | -93.77522 | 38756 ft | 588 kts | 115° |
| 2026-05-05 13:41 | 35.19295 | -93.68326 | 38759 ft | 583 kts | 115° |
| 2026-05-05 13:41 | 35.16199 | -93.59084 | 38755 ft | 583 kts | 115° |
| 2026-05-05 13:42 | 35.13122 | -93.49920 | 38771 ft | 583 kts | 115° |
| 2026-05-05 13:42 | 35.10033 | -93.40750 | 38783 ft | 584 kts | 115° |
| 2026-05-05 13:43 | 35.06953 | -93.31633 | 38793 ft | 585 kts | 115° |
| 2026-05-05 13:43 | 35.03841 | -93.22446 | 38792 ft | 585 kts | 115° |
| 2026-05-05 13:44 | 35.00723 | -93.13272 | 38798 ft | 585 kts | 115° |
| 2026-05-05 13:44 | 34.97595 | -93.04095 | 38790 ft | 585 kts | 115° |
| 2026-05-05 13:45 | 34.94470 | -92.94952 | 38783 ft | 584 kts | 115° |
| 2026-05-05 13:45 | 34.91337 | -92.85816 | 38811 ft | 584 kts | 115° |
| 2026-05-05 13:46 | 34.88197 | -92.76685 | 38808 ft | 584 kts | 115° |
| 2026-05-05 13:46 | 34.85058 | -92.67583 | 38828 ft | 583 kts | 115° |
| 2026-05-05 13:47 | 34.81908 | -92.58477 | 38820 ft | 583 kts | 115° |
| 2026-05-05 13:47 | 34.78758 | -92.49394 | 38838 ft | 583 kts | 115° |
| 2026-05-05 13:48 | 34.75592 | -92.40293 | 38840 ft | 584 kts | 115° |
| 2026-05-05 13:48 | 34.72423 | -92.31209 | 38861 ft | 584 kts | 115° |
| 2026-05-05 13:49 | 34.69240 | -92.22107 | 38859 ft | 584 kts | 115° |
| 2026-05-05 13:49 | 34.67709 | -92.17534 | 38640 ft | 588 kts | 109° |
| 2026-05-05 13:49 | 34.66719 | -92.12689 | 37923 ft | 590 kts | 98° |
| 2026-05-05 13:50 | 34.66120 | -92.07764 | 37299 ft | 587 kts | 95° |
| 2026-05-05 13:50 | 34.65656 | -92.02851 | 36667 ft | 585 kts | 94° |
| 2026-05-05 13:50 | 34.65205 | -91.97943 | 36038 ft | 584 kts | 94° |
| 2026-05-05 13:50 | 34.64712 | -91.93050 | 35362 ft | 584 kts | 95° |
| 2026-05-05 13:51 | 34.64159 | -91.88136 | 34583 ft | 586 kts | 96° |
| 2026-05-05 13:51 | 34.63560 | -91.83232 | 33751 ft | 589 kts | 97° |
| 2026-05-05 13:51 | 34.62934 | -91.78310 | 32802 ft | 590 kts | 97° |
| 2026-05-05 13:51 | 34.62297 | -91.73382 | 31885 ft | 590 kts | 97° |
| 2026-05-05 13:52 | 34.61671 | -91.68521 | 30956 ft | 589 kts | 97° |
| 2026-05-05 13:52 | 34.61046 | -91.63632 | 30309 ft | 582 kts | 97° |
| 2026-05-05 13:52 | 34.60434 | -91.58820 | 29668 ft | 573 kts | 97° |
| 2026-05-05 13:52 | 34.59832 | -91.54077 | 28942 ft | 563 kts | 97° |
| 2026-05-05 13:53 | 34.59239 | -91.49406 | 28263 ft | 554 kts | 97° |
| 2026-05-05 13:53 | 34.58654 | -91.44817 | 27611 ft | 545 kts | 97° |
| 2026-05-05 13:53 | 34.58078 | -91.40307 | 26967 ft | 537 kts | 97° |
| 2026-05-05 13:53 | 34.57508 | -91.35866 | 26534 ft | 525 kts | 97° |
| 2026-05-05 13:54 | 34.56949 | -91.31543 | 26111 ft | 514 kts | 97° |
| 2026-05-05 13:54 | 34.56396 | -91.27282 | 25531 ft | 508 kts | 98° |
| 2026-05-05 13:54 | 34.55847 | -91.23061 | 24962 ft | 503 kts | 98° |
| 2026-05-05 13:54 | 34.55310 | -91.18940 | 24384 ft | 498 kts | 98° |
| 2026-05-05 13:55 | 34.54772 | -91.14815 | 23812 ft | 493 kts | 98° |
| 2026-05-05 13:55 | 34.54236 | -91.10724 | 23210 ft | 488 kts | 98° |
| 2026-05-05 13:55 | 34.53711 | -91.06732 | 22564 ft | 472 kts | 98° |
| 2026-05-05 13:55 | 34.53196 | -91.02817 | 22018 ft | 466 kts | 99° |
| 2026-05-05 13:56 | 34.52685 | -90.98943 | 21477 ft | 461 kts | 99° |
| 2026-05-05 13:56 | 34.52180 | -90.95127 | 20947 ft | 457 kts | 99° |
| 2026-05-05 13:56 | 34.51679 | -90.91340 | 20477 ft | 451 kts | 99° |
| 2026-05-05 13:56 | 34.51183 | -90.87607 | 19964 ft | 447 kts | 99° |
| 2026-05-05 13:57 | 34.50689 | -90.83902 | 19464 ft | 443 kts | 98° |
| 2026-05-05 13:57 | 34.50580 | -90.80234 | 19099 ft | 427 kts | 79° |
| 2026-05-05 13:57 | 34.51322 | -90.76838 | 18800 ft | 414 kts | 64° |
| 2026-05-05 13:57 | 34.52709 | -90.73841 | 18340 ft | 400 kts | 47° |
| 2026-05-05 13:58 | 34.54478 | -90.71284 | 17859 ft | 393 kts | 44° |
| 2026-05-05 13:58 | 34.56261 | -90.68786 | 17376 ft | 390 kts | 44° |
| 2026-05-05 13:58 | 34.57997 | -90.66318 | 16918 ft | 388 kts | 45° |
| 2026-05-05 13:58 | 34.59728 | -90.63807 | 16476 ft | 386 kts | 46° |
| 2026-05-05 13:59 | 34.63108 | -90.58792 | 15664 ft | 383 kts | 48° |
| 2026-05-05 13:59 | 34.64747 | -90.56228 | 15315 ft | 385 kts | 49° |
| 2026-05-05 14:00 | 34.68032 | -90.51047 | 14600 ft | 386 kts | 50° |
| 2026-05-05 14:00 | 34.69115 | -90.49347 | 14373 ft | 384 kts | 50° |
| 2026-05-05 14:00 | 34.71300 | -90.45926 | 13893 ft | 382 kts | 50° |
| 2026-05-05 14:00 | 34.72927 | -90.43381 | 13525 ft | 381 kts | 50° |
| 2026-05-05 14:01 | 34.74548 | -90.40841 | 13147 ft | 379 kts | 51° |
| 2026-05-05 14:01 | 34.76155 | -90.38320 | 12826 ft | 374 kts | 51° |
| 2026-05-05 14:01 | 34.77710 | -90.35879 | 12677 ft | 352 kts | 51° |
| 2026-05-05 14:01 | 34.79163 | -90.33596 | 12078 ft | 337 kts | 51° |
| 2026-05-05 14:02 | 34.80599 | -90.31342 | 11599 ft | 340 kts | 51° |
| 2026-05-05 14:02 | 34.82038 | -90.29082 | 11335 ft | 335 kts | 51° |
| 2026-05-05 14:02 | 34.83453 | -90.26856 | 11062 ft | 330 kts | 51° |
| 2026-05-05 14:02 | 34.84801 | -90.24807 | 10700 ft | 324 kts | 44° |
| 2026-05-05 14:03 | 34.86632 | -90.23249 | 10361 ft | 320 kts | 17° |
| 2026-05-05 14:03 | 34.88765 | -90.22761 | 10189 ft | 307 kts | 351° |
| 2026-05-05 14:03 | 34.90810 | -90.23244 | 10063 ft | 296 kts | 336° |
| 2026-05-05 14:03 | 34.92762 | -90.24049 | 9967 ft | 297 kts | 333° |
| 2026-05-05 14:04 | 34.94663 | -90.25042 | 9818 ft | 296 kts | 329° |
| 2026-05-05 14:04 | 34.96529 | -90.26095 | 9676 ft | 295 kts | 328° |
| 2026-05-05 14:04 | 34.98387 | -90.27156 | 9499 ft | 295 kts | 328° |
| 2026-05-05 14:04 | 35.00241 | -90.28226 | 9372 ft | 292 kts | 326° |
| 2026-05-05 14:05 | 35.01955 | -90.29517 | 9221 ft | 288 kts | 319° |
| 2026-05-05 14:05 | 35.03564 | -90.30917 | 9074 ft | 288 kts | 317° |
| 2026-05-05 14:05 | 35.05190 | -90.32356 | 8936 ft | 289 kts | 317° |
| 2026-05-05 14:05 | 35.06818 | -90.33802 | 8776 ft | 289 kts | 317° |
| 2026-05-05 14:06 | 35.08445 | -90.35238 | 8626 ft | 289 kts | 318° |
| 2026-05-05 14:06 | 35.10184 | -90.36442 | 8439 ft | 292 kts | 336° |
| 2026-05-05 14:06 | 35.12202 | -90.36840 | 8322 ft | 297 kts | 351° |
| 2026-05-05 14:06 | 35.13578 | -90.36928 | 8248 ft | 299 kts | 352° |
| 2026-05-05 14:07 | 35.15665 | -90.37009 | 8091 ft | 301 kts | 353° |
| 2026-05-05 14:07 | 35.17770 | -90.37079 | 7934 ft | 303 kts | 353° |
| 2026-05-05 14:07 | 35.19880 | -90.37145 | 7785 ft | 303 kts | 353° |
| 2026-05-05 14:07 | 35.21984 | -90.37212 | 7633 ft | 302 kts | 353° |
| 2026-05-05 14:08 | 35.24068 | -90.37274 | 7431 ft | 296 kts | 353° |
| 2026-05-05 14:08 | 35.26087 | -90.37327 | 7370 ft | 284 kts | 353° |
| 2026-05-05 14:08 | 35.28004 | -90.37066 | 7173 ft | 280 kts | 19° |
| 2026-05-05 14:08 | 35.29532 | -90.35638 | 6966 ft | 279 kts | 56° |
| 2026-05-05 14:09 | 35.30194 | -90.33476 | 6681 ft | 264 kts | 86° |
| 2026-05-05 14:09 | 35.30276 | -90.31268 | 6151 ft | 254 kts | 96° |
| 2026-05-05 14:09 | 35.30136 | -90.29192 | 5701 ft | 239 kts | 103° |
| 2026-05-05 14:09 | 35.29891 | -90.27169 | 5375 ft | 238 kts | 105° |
| 2026-05-05 14:10 | 35.29637 | -90.25188 | 5149 ft | 234 kts | 105° |
| 2026-05-05 14:10 | 35.29386 | -90.23218 | 4848 ft | 234 kts | 105° |
| 2026-05-05 14:10 | 35.29142 | -90.21280 | 4581 ft | 234 kts | 105° |
| 2026-05-05 14:10 | 35.28902 | -90.19341 | 4428 ft | 230 kts | 105° |
| 2026-05-05 14:11 | 35.28662 | -90.17379 | 4242 ft | 233 kts | 104° |
| 2026-05-05 14:11 | 35.28422 | -90.15413 | 4078 ft | 234 kts | 104° |
| 2026-05-05 14:11 | 35.28186 | -90.13448 | 3912 ft | 232 kts | 104° |
| 2026-05-05 14:11 | 35.27953 | -90.11503 | 3767 ft | 230 kts | 105° |
| 2026-05-05 14:12 | 35.27721 | -90.09567 | 3621 ft | 229 kts | 105° |
| 2026-05-05 14:12 | 35.27487 | -90.07634 | 3511 ft | 228 kts | 105° |
| 2026-05-05 14:12 | 35.27259 | -90.05725 | 3454 ft | 227 kts | 105° |
| 2026-05-05 14:12 | 35.27027 | -90.03800 | 3391 ft | 230 kts | 105° |
| 2026-05-05 14:13 | 35.26791 | -90.01844 | 3327 ft | 233 kts | 106° |
| 2026-05-05 14:13 | 35.26296 | -90.00052 | 3216 ft | 216 kts | 134° |
| 2026-05-05 14:13 | 35.25298 | -89.98752 | 3163 ft | 206 kts | 149° |
| 2026-05-05 14:13 | 35.24090 | -89.98060 | 3082 ft | 184 kts | 179° |
| 2026-05-05 14:14 | 35.22888 | -89.97849 | 3019 ft | 167 kts | 181° |
| 2026-05-05 14:14 | 35.21776 | -89.97708 | 2915 ft | 156 kts | 185° |
| 2026-05-05 14:14 | 35.20718 | -89.97645 | 2828 ft | 149 kts | 186° |
| 2026-05-05 14:14 | 35.19685 | -89.97612 | 2782 ft | 149 kts | 187° |
| 2026-05-05 14:15 | 35.18638 | -89.97587 | 2718 ft | 151 kts | 187° |
| 2026-05-05 14:15 | 35.17592 | -89.97564 | 2620 ft | 149 kts | 187° |
| 2026-05-05 14:15 | 35.16572 | -89.97541 | 2544 ft | 144 kts | 187° |
| 2026-05-05 14:15 | 35.15558 | -89.97520 | 2431 ft | 149 kts | 187° |
| 2026-05-05 14:16 | 35.14557 | -89.97497 | 2246 ft | 135 kts | 187° |
| 2026-05-05 14:16 | 35.13657 | -89.97478 | 2089 ft | 122 kts | 187° |
| 2026-05-05 14:16 | 35.12869 | -89.97460 | 1930 ft | 105 kts | 187° |
| 2026-05-05 14:16 | 35.12174 | -89.97447 | 1787 ft | 102 kts | 187° |
| 2026-05-05 14:17 | 35.11439 | -89.97433 | 1671 ft | 104 kts | 185° |
| 2026-05-05 14:17 | 35.10707 | -89.97419 | 1517 ft | 111 kts | 185° |
| 2026-05-05 14:17 | 35.09930 | -89.97403 | 1379 ft | 110 kts | 182° |
| 2026-05-05 14:17 | 35.09158 | -89.97383 | 1212 ft | 117 kts | 184° |
| 2026-05-05 14:18 | 35.08312 | -89.97371 | 1048 ft | 122 kts | 179° |
| 2026-05-05 14:18 | 35.07457 | -89.97345 | 857 ft | 122 kts | 181° |
| 2026-05-05 14:18 | 35.06594 | -89.97343 | 675 ft | 125 kts | 179° |
| 2026-05-05 14:18 | 35.05719 | -89.97320 | 553 ft | 130 kts | 178° |
| 2026-05-05 14:19 | 35.04816 | -89.97295 | 383 ft | 129 kts | 179° |
| 2026-05-05 14:19 | 35.03939 | -89.97276 | 569 ft | 121 kts | 179° |
| 2026-05-05 14:19 | 35.03082 | -89.97240 | 989 ft | 123 kts | 180° |
| 2026-05-05 14:19 | 35.02234 | -89.97195 | 1768 ft | 109 kts | 184° |
| 2026-05-05 14:20 | 35.01491 | -89.97166 | 2442 ft | 107 kts | 188° |
| 2026-05-05 14:20 | 35.00666 | -89.97147 | 2782 ft | 134 kts | 188° |
| 2026-05-05 14:20 | 34.99614 | -89.97125 | 3058 ft | 169 kts | 186° |
| 2026-05-05 14:20 | 34.98341 | -89.96944 | 3498 ft | 197 kts | 173° |
| 2026-05-05 14:21 | 34.97014 | -89.96330 | 4152 ft | 212 kts | 159° |
| 2026-05-05 14:21 | 34.95752 | -89.95382 | 4807 ft | 219 kts | 145° |
| 2026-05-05 14:21 | 34.94852 | -89.93795 | 5021 ft | 241 kts | 115° |
| 2026-05-05 14:21 | 34.94698 | -89.91661 | 5048 ft | 277 kts | 84° |
| 2026-05-05 14:22 | 34.95429 | -89.89381 | 5027 ft | 297 kts | 56° |
| 2026-05-05 14:22 | 34.96926 | -89.87636 | 5019 ft | 300 kts | 28° |
| 2026-05-05 14:22 | 34.98866 | -89.86814 | 5017 ft | 294 kts | 5° |
| 2026-05-05 14:22 | 35.00900 | -89.86584 | 5015 ft | 294 kts | 359° |
| 2026-05-05 14:23 | 35.02940 | -89.86461 | 5021 ft | 294 kts | 358° |
| 2026-05-05 14:23 | 35.04995 | -89.86360 | 5024 ft | 295 kts | 358° |
| 2026-05-05 14:23 | 35.07029 | -89.86272 | 5019 ft | 295 kts | 358° |
| 2026-05-05 14:23 | 35.09100 | -89.86178 | 5019 ft | 294 kts | 358° |
| 2026-05-05 14:24 | 35.11115 | -89.86089 | 5016 ft | 294 kts | 358° |
| 2026-05-05 14:24 | 35.13158 | -89.85998 | 5014 ft | 293 kts | 358° |
| 2026-05-05 14:24 | 35.15189 | -89.85910 | 5018 ft | 292 kts | 358° |
| 2026-05-05 14:24 | 35.17225 | -89.85822 | 5011 ft | 292 kts | 358° |
| 2026-05-05 14:25 | 35.19263 | -89.85733 | 5010 ft | 292 kts | 358° |
| 2026-05-05 14:25 | 35.21290 | -89.85647 | 5007 ft | 292 kts | 358° |
| 2026-05-05 14:25 | 35.23322 | -89.85556 | 5006 ft | 292 kts | 358° |
| 2026-05-05 14:25 | 35.25350 | -89.85463 | 5014 ft | 290 kts | 357° |
| 2026-05-05 14:26 | 35.27263 | -89.85814 | 4983 ft | 266 kts | 328° |
| 2026-05-05 14:26 | 35.28534 | -89.87206 | 4947 ft | 237 kts | 291° |
| 2026-05-05 14:26 | 35.28958 | -89.89059 | 4684 ft | 220 kts | 270° |
| 2026-05-05 14:26 | 35.29010 | -89.90900 | 4453 ft | 213 kts | 263° |
| 2026-05-05 14:27 | 35.28887 | -89.92678 | 4199 ft | 206 kts | 255° |
| 2026-05-05 14:27 | 35.28389 | -89.94247 | 4050 ft | 194 kts | 236° |
| 2026-05-05 14:27 | 35.27630 | -89.95592 | 3931 ft | 191 kts | 233° |
| 2026-05-05 14:27 | 35.26728 | -89.96737 | 3773 ft | 188 kts | 210° |
| 2026-05-05 14:28 | 35.25466 | -89.97142 | 3682 ft | 189 kts | 194° |
| 2026-05-05 14:28 | 35.24156 | -89.97355 | 3626 ft | 191 kts | 191° |
| 2026-05-05 14:28 | 35.22833 | -89.97533 | 3651 ft | 191 kts | 191° |
| 2026-05-05 14:28 | 35.21530 | -89.97614 | 3539 ft | 184 kts | 187° |
| 2026-05-05 14:29 | 35.20272 | -89.97615 | 3303 ft | 181 kts | 186° |
| 2026-05-05 14:29 | 35.19015 | -89.97592 | 3091 ft | 177 kts | 186° |
| 2026-05-05 14:29 | 35.17792 | -89.97567 | 2882 ft | 174 kts | 186° |
| 2026-05-05 14:29 | 35.16612 | -89.97542 | 2651 ft | 169 kts | 186° |
| 2026-05-05 14:30 | 35.15451 | -89.97516 | 2428 ft | 164 kts | 186° |
| 2026-05-05 14:30 | 35.14334 | -89.97492 | 2206 ft | 152 kts | 186° |
| 2026-05-05 14:30 | 35.13335 | -89.97470 | 2033 ft | 137 kts | 186° |
| 2026-05-05 14:30 | 35.12416 | -89.97452 | 1841 ft | 127 kts | 186° |
| 2026-05-05 14:31 | 35.11578 | -89.97435 | 1688 ft | 114 kts | 185° |
| 2026-05-05 14:31 | 35.10805 | -89.97419 | 1520 ft | 111 kts | 185° |
| 2026-05-05 14:31 | 35.10016 | -89.97403 | 1383 ft | 116 kts | 184° |
| 2026-05-05 14:31 | 35.09199 | -89.97385 | 1212 ft | 120 kts | 184° |
| 2026-05-05 14:32 | 35.08359 | -89.97371 | 1043 ft | 123 kts | 179° |
| 2026-05-05 14:32 | 35.07473 | -89.97347 | 872 ft | 132 kts | 182° |
| 2026-05-05 14:32 | 35.06542 | -89.97336 | 655 ft | 137 kts | 180° |
| 2026-05-05 14:32 | 35.05592 | -89.97314 | 491 ft | 138 kts | 179° |
| 2026-05-05 14:33 | 35.04637 | -89.97292 | 362 ft | 130 kts | 179° |
| 2026-05-05 14:33 | 35.03855 | -89.97275 | 332 ft | 88 kts | 179° |
| 2026-05-05 14:33 | 35.03414 | -89.97274 | 333 ft | 42 kts | 187° |
| 2026-05-05 14:33 | 35.03234 | -89.97348 | 329 ft | 16 kts | 216° |
| 2026-05-05 14:34 | 35.03230 | -89.97430 | 331 ft | 7 kts | 319° |
| 2026-05-05 14:34 | 35.03276 | -89.97438 | 327 ft | 7 kts | 359° |
| 2026-05-05 14:34 | 35.03324 | -89.97438 | 329 ft | 7 kts | 358° |
| 2026-05-05 14:34 | 35.03372 | -89.97440 | 330 ft | 7 kts | 359° |
| 2026-05-05 14:35 | 35.03419 | -89.97441 | 328 ft | 7 kts | 359° |
| 2026-05-05 14:35 | 35.03467 | -89.97442 | 330 ft | 7 kts | 359° |
| 2026-05-05 14:35 | 35.03515 | -89.97443 | 330 ft | 7 kts | 360° |
| 2026-05-05 14:35 | 35.03567 | -89.97443 | 330 ft | 11 kts | 359° |
| 2026-05-05 14:36 | 35.03665 | -89.97445 | 328 ft | 15 kts | 358° |
| 2026-05-05 14:36 | 35.03766 | -89.97450 | 328 ft | 15 kts | 358° |
| 2026-05-05 14:36 | 35.03867 | -89.97453 | 331 ft | 15 kts | 359° |
| 2026-05-05 14:36 | 35.03970 | -89.97454 | 330 ft | 15 kts | 360° |
| 2026-05-05 14:37 | 35.04071 | -89.97454 | 329 ft | 15 kts | 359° |
| 2026-05-05 14:37 | 35.04168 | -89.97463 | 328 ft | 13 kts | 336° |
| 2026-05-05 14:37 | 35.04196 | -89.97571 | 330 ft | 18 kts | 268° |
| 2026-05-05 14:37 | 35.04191 | -89.97706 | 330 ft | 12 kts | 257° |
| 2026-05-05 14:38 | 35.04138 | -89.97746 | 329 ft | 10 kts | 177° |
| 2026-05-05 14:38 | 35.04051 | -89.97742 | 329 ft | 13 kts | 178° |
| 2026-05-05 14:38 | 35.03960 | -89.97739 | 331 ft | 13 kts | 179° |
| 2026-05-05 14:38 | 35.03891 | -89.97796 | 330 ft | 13 kts | 257° |
| 2026-05-05 14:39 | 35.03889 | -89.97908 | 331 ft | 13 kts | 269° |
| 2026-05-05 14:39 | 35.03888 | -89.98020 | 332 ft | 13 kts | 269° |
| 2026-05-05 14:39 | 35.03886 | -89.98132 | 333 ft | 13 kts | 269° |
| 2026-05-05 14:39 | 35.03887 | -89.98242 | 334 ft | 10 kts | 281° |
| 2026-05-05 14:40 | 35.03920 | -89.98269 | 333 ft | 6 kts | 352° |
| 2026-05-05 14:40 | 35.03950 | -89.98276 | 332 ft | 4 kts | 342° |
| 2026-05-05 14:40 | 35.03972 | -89.98292 | 334 ft | 4 kts | 329° |
| 2026-05-05 14:40 | 35.03995 | -89.98309 | 330 ft | 4 kts | 329° |
| 2026-05-05 14:41 | 35.04016 | -89.98324 | 333 ft | 2 kts | 328° |
| 2026-05-05 14:41 | 35.04019 | -89.98326 | 333 ft | 0 kts | 328° |